Kenora Airport
CYQK : now visible

Airfield :











YOU CAN JOIN US ON...

 
LOGIN :

Register | Disclaimer

   EN    FR    IT 

 









Legend :    VFR   Marginal VFR   IFR   Intensive IFR   Very Intensive IFR
Visi :
Ceiling :
>= 8 km
>= 3000ft
5 to 8 km
1000 to 3000 ft
1500m to 5 km
500 to 1000 ft
800 to 1500m
200 to 500 ft
< 800m
< 200 ft
Symbols :   Thunderstorms  Fog  Heavy snow  Heavy precipitations  Wind > 20 kt






- Airport Elevation : 1332 ft
- IATA code : YQK


CYQK - Kenora

CURRENT METAR :
  • 041400Z 15006KT 20SM SCT071 BKN110 14/12 A3002 RMK AC4AC3 SLP174 DENSITY ALT 1500FT

EXPIRED METARs :
  • 041300Z 16005KT 20SM BKN075 OVC110 14/12 A3003 RMK AC6AC2 SLP176 DENSITY ALT 1400FT
  • 041200Z 16005KT 20SM BKN075 OVC110 13/12 A3003 RMK AC6AC2 SLP178 DENSITY ALT 1400FT
  • 041100Z 19003KT 20SM BKN082 OVC110 14/12 A3005 RMK AC7AC1 SLP182 DENSITY ALT 1400FT

TAF TAF CYQK
Valid from the 04 at 14:00 until the 05 at 02:00 UTC


041341Z 0414/0502 18007KT P6SM BKN080
TEMPO 0414/0421 P6SM -SHRA
BECMG 0416/0418 21010KT
FM042100 21010KT P6SM BKN030 BKN060 RMK NXT FCST BY 042000Z
CZWG FIR / North America



MET'MAP, your aeronautical weather chart ! - Copyright ORBIFLY December 2007 - Disclaimer

ORBIFLY MET'MAP TEAM :

Programming & Development : Alexandra Zaïnal
Original concept : Baudouin d'Aumeries
Technical & hardware support : Manuel Goepfert
Assistance : Marc-Olivier Méhu




SOURCES & CREDITS :

   NOAA       Earth
Advisory